createdAt,value
2019-03-10T00:00:31.135Z,53.85
2019-03-10T00:01:35.368Z,53.88
2019-03-10T00:02:39.432Z,53.83
2019-03-10T00:03:43.056Z,53.80
2019-03-10T00:04:46.691Z,53.71
2019-03-10T00:05:50.628Z,53.76
2019-03-10T00:06:54.324Z,53.76
2019-03-10T00:07:57.930Z,53.91
2019-03-10T00:09:01.554Z,54.04
2019-03-10T00:10:08.100Z,54.20
2019-03-10T00:11:11.736Z,54.22
2019-03-10T00:12:15.405Z,54.10
2019-03-10T00:13:19.030Z,54.28
2019-03-10T00:14:22.676Z,54.43
2019-03-10T00:15:26.716Z,54.19
2019-03-10T00:16:30.343Z,54.19
2019-03-10T00:17:34.021Z,54.65
2019-03-10T00:18:37.650Z,54.74
2019-03-10T00:19:41.347Z,54.67
2019-03-10T00:20:45.391Z,54.82
2019-03-10T00:21:49.436Z,54.88
2019-03-10T00:22:53.111Z,54.87
2019-03-10T00:23:56.731Z,54.95
2019-03-10T00:25:00.369Z,54.49
2019-03-10T00:26:03.996Z,54.49
2019-03-10T00:27:07.630Z,54.87
2019-03-10T00:28:11.307Z,54.78
2019-03-10T00:29:15.248Z,54.96
2019-03-10T00:30:19.288Z,55.03
2019-03-10T00:31:23.246Z,55.18
2019-03-10T00:32:26.912Z,55.39
2019-03-10T00:33:30.584Z,55.31
2019-03-10T00:34:34.286Z,55.46
2019-03-10T00:35:38.215Z,55.29
2019-03-10T00:36:41.854Z,55.50
2019-03-10T00:37:45.494Z,55.56
2019-03-10T00:39:04.992Z,55.68
2019-03-10T00:40:40.000Z,55.89
2019-03-10T00:41:58.397Z,55.71
2019-03-10T00:43:23.104Z,55.96
2019-03-10T00:44:44.820Z,56.60
2019-03-10T00:46:11.114Z,56.63
2019-03-10T00:47:40.595Z,56.90
2019-03-10T00:49:02.074Z,56.52
2019-03-10T00:50:25.401Z,56.80
2019-03-10T00:51:37.964Z,56.71
2019-03-10T00:52:47.762Z,56.70
2019-03-10T00:53:51.396Z,56.60
2019-03-10T00:54:55.030Z,56.42
2019-03-10T00:55:58.677Z,56.33
2019-03-10T00:57:02.513Z,56.10
2019-03-10T00:58:06.202Z,55.89
2019-03-10T00:59:09.834Z,56.06
2019-03-10T01:00:16.543Z,56.93
2019-03-10T01:01:20.175Z,56.92
2019-03-10T01:02:24.010Z,56.81
2019-03-10T01:03:27.692Z,56.85
2019-03-10T01:04:31.333Z,56.81
2019-03-10T01:05:35.135Z,56.70
2019-03-10T01:06:39.006Z,56.52
2019-03-10T01:07:42.747Z,56.64
2019-03-10T01:08:46.471Z,56.77
2019-03-10T01:09:50.111Z,56.79
2019-03-10T01:10:53.947Z,56.54
2019-03-10T01:11:57.613Z,56.32
2019-03-10T01:13:01.741Z,56.28
2019-03-10T01:14:05.374Z,56.28
2019-03-10T01:15:13.440Z,56.21
2019-03-10T01:16:17.474Z,56.22
2019-03-10T01:17:22.058Z,56.21
2019-03-10T01:18:27.188Z,56.49
2019-03-10T01:19:31.933Z,56.44
2019-03-10T01:20:35.961Z,56.47
2019-03-10T01:21:40.417Z,56.85
2019-03-10T01:22:44.013Z,57.10
2019-03-10T01:23:47.576Z,57.09
2019-03-10T01:24:51.206Z,57.11
2019-03-10T01:25:54.838Z,56.83
2019-03-10T01:26:58.577Z,56.62
2019-03-10T01:28:02.213Z,56.67
2019-03-10T01:29:05.854Z,57.06
2019-03-10T01:30:14.919Z,57.08
2019-03-10T01:31:24.284Z,57.34
2019-03-10T01:32:48.909Z,57.48
2019-03-10T01:34:01.284Z,57.36
2019-03-10T01:35:14.002Z,57.16
2019-03-10T01:36:16.347Z,57.15
2019-03-10T01:37:19.976Z,56.85
2019-03-10T01:38:23.613Z,56.84
2019-03-10T01:39:27.277Z,56.94
2019-03-10T01:40:30.920Z,57.11
2019-03-10T01:41:34.611Z,57.49
2019-03-10T01:42:38.310Z,57.40
2019-03-10T01:43:41.944Z,57.31
2019-03-10T01:44:45.604Z,57.37
2019-03-10T01:45:49.247Z,57.68
2019-03-10T01:46:53.284Z,57.75
2019-03-10T01:47:59.186Z,57.73
2019-03-10T01:49:02.232Z,57.55
2019-03-10T01:50:08.163Z,57.79
2019-03-10T01:51:11.873Z,57.98
2019-03-10T01:52:15.502Z,57.82
2019-03-10T01:53:25.408Z,57.76
2019-03-10T01:54:24.876Z,57.99
2019-03-10T01:55:28.518Z,58.04
2019-03-10T01:56:32.075Z,58.06
2019-03-10T01:57:35.710Z,58.17
2019-03-10T01:58:39.346Z,58.39
2019-03-10T01:59:42.983Z,58.71
2019-03-10T02:00:46.988Z,58.60
2019-03-10T02:01:50.623Z,58.58
2019-03-10T02:02:54.261Z,58.53
2019-03-10T02:03:57.906Z,58.42
2019-03-10T02:05:01.545Z,58.37
2019-03-10T02:06:05.203Z,58.70
2019-03-10T02:07:09.184Z,59.03
2019-03-10T02:08:12.831Z,58.83
2019-03-10T02:09:16.409Z,58.70
2019-03-10T02:10:20.035Z,58.73
2019-03-10T02:11:23.680Z,59.04
2019-03-10T02:12:27.314Z,59.22
2019-03-10T02:13:31.341Z,59.14
2019-03-10T02:14:34.979Z,59.14
2019-03-10T02:15:38.616Z,59.31
2019-03-10T02:16:42.275Z,59.85
2019-03-10T02:17:45.905Z,59.62
2019-03-10T02:18:49.528Z,59.37
2019-03-10T02:19:54.385Z,59.36
2019-03-10T02:20:58.016Z,59.38
2019-03-10T02:22:01.678Z,59.39
2019-03-10T02:23:05.307Z,59.41
2019-03-10T02:24:09.256Z,59.96
2019-03-10T02:25:12.879Z,59.55
2019-03-10T02:26:16.505Z,59.70
2019-03-10T02:27:20.172Z,59.81
2019-03-10T02:28:23.798Z,59.80
2019-03-10T02:29:27.486Z,59.69
2019-03-10T02:30:31.096Z,59.54
2019-03-10T02:31:34.751Z,59.74
2019-03-10T02:32:38.402Z,59.70
2019-03-10T02:33:41.954Z,59.01
2019-03-10T02:34:45.589Z,59.93
2019-03-10T02:35:49.247Z,61.04
2019-03-10T02:36:52.950Z,61.25
2019-03-10T02:37:56.623Z,61.81
2019-03-10T02:39:00.252Z,61.68
2019-03-10T02:40:04.459Z,62.24
2019-03-10T02:41:08.454Z,62.55
2019-03-10T02:42:12.094Z,62.86
2019-03-10T02:43:15.764Z,63.06
2019-03-10T02:44:19.395Z,62.97
2019-03-10T02:45:23.029Z,62.95
2019-03-10T02:46:26.663Z,62.91
2019-03-10T02:47:30.311Z,62.20
2019-03-10T02:48:34.077Z,62.50
2019-03-10T02:49:37.645Z,62.85
2019-03-10T02:50:41.280Z,63.69
2019-03-10T02:51:44.916Z,64.12
2019-03-10T02:52:48.556Z,64.46
2019-03-10T02:53:52.467Z,64.36
2019-03-10T02:54:56.109Z,64.38
2019-03-10T02:55:59.745Z,64.26
2019-03-10T02:57:03.388Z,64.12
2019-03-10T02:58:07.017Z,63.85
2019-03-10T02:59:10.712Z,63.83
2019-03-10T03:00:14.543Z,64.17
2019-03-10T03:01:18.204Z,64.60
2019-03-10T03:02:22.295Z,64.82
2019-03-10T03:03:25.926Z,64.97
2019-03-10T03:04:29.599Z,64.67
2019-03-10T03:05:33.237Z,64.44
2019-03-10T03:06:36.873Z,64.54
2019-03-10T03:07:40.509Z,64.44
2019-03-10T03:08:44.145Z,64.51
2019-03-10T03:09:47.801Z,63.89
2019-03-10T03:10:51.440Z,63.84
2019-03-10T03:11:55.121Z,64.12
2019-03-10T03:12:58.761Z,64.67
2019-03-10T03:14:02.397Z,64.87
2019-03-10T03:15:08.323Z,64.92
2019-03-10T03:16:11.956Z,64.65
2019-03-10T03:17:15.583Z,64.47
2019-03-10T03:18:19.229Z,64.53
2019-03-10T03:19:22.846Z,64.31
2019-03-10T03:20:26.441Z,64.03
2019-03-10T03:21:42.503Z,63.19
2019-03-10T03:22:35.448Z,63.92
2019-03-10T03:23:39.001Z,64.41
2019-03-10T03:24:42.633Z,64.81
2019-03-10T03:25:46.311Z,64.52
2019-03-10T03:26:49.939Z,64.72
2019-03-10T03:27:53.507Z,64.90
2019-03-10T03:28:57.145Z,64.57
2019-03-10T03:30:00.792Z,64.26
2019-03-10T03:31:04.819Z,63.79
2019-03-10T03:32:08.472Z,63.13
2019-03-10T03:33:12.033Z,63.42
2019-03-10T03:34:15.694Z,63.95
2019-03-10T03:35:48.708Z,64.20
2019-03-10T03:36:52.366Z,64.87
2019-03-10T03:37:55.997Z,65.06
2019-03-10T03:39:08.167Z,64.92
2019-03-10T03:40:11.817Z,64.89
2019-03-10T03:41:20.697Z,64.73
2019-03-10T03:42:24.289Z,64.85
2019-03-10T03:43:27.917Z,64.83
2019-03-10T03:44:31.622Z,64.70
2019-03-10T03:45:35.279Z,64.20
2019-03-10T03:46:38.932Z,64.84
2019-03-10T03:47:42.632Z,65.15
2019-03-10T03:48:46.338Z,65.21
2019-03-10T03:49:49.966Z,65.21
2019-03-10T03:50:53.640Z,65.05
2019-03-10T03:51:57.268Z,64.95
2019-03-10T03:53:00.834Z,65.06
2019-03-10T03:54:04.465Z,64.08
2019-03-10T03:55:08.265Z,63.92
2019-03-10T03:56:11.935Z,64.81
2019-03-10T03:57:15.577Z,65.15
2019-03-10T03:58:19.254Z,65.30
2019-03-10T03:59:22.918Z,66.05
2019-03-10T04:00:26.637Z,66.00
2019-03-10T04:01:31.942Z,65.65
2019-03-10T04:02:36.737Z,65.46
2019-03-10T04:03:40.379Z,65.24
2019-03-10T04:04:44.013Z,65.17
2019-03-10T04:05:47.639Z,64.69
2019-03-10T04:06:51.305Z,65.08
2019-03-10T04:07:54.874Z,65.24
2019-03-10T04:08:58.501Z,65.37
2019-03-10T04:10:02.153Z,65.57
2019-03-10T04:11:05.772Z,65.97
2019-03-10T04:12:09.456Z,65.90
2019-03-10T04:13:13.377Z,65.75
2019-03-10T04:14:17.384Z,65.72
2019-03-10T04:15:21.110Z,65.65
2019-03-10T04:16:24.722Z,64.81
2019-03-10T04:17:28.396Z,64.91
2019-03-10T04:18:32.038Z,65.41
2019-03-10T04:19:35.662Z,65.89
2019-03-10T04:20:39.301Z,66.43
2019-03-10T04:21:42.939Z,66.55
2019-03-10T04:22:46.699Z,66.54
2019-03-10T04:23:50.276Z,66.53
2019-03-10T04:24:53.902Z,66.52
2019-03-10T04:25:57.610Z,66.71
2019-03-10T04:27:01.206Z,66.58
2019-03-10T04:28:04.882Z,64.96
2019-03-10T04:29:08.521Z,65.47
2019-03-10T04:30:13.267Z,65.85
2019-03-10T04:31:16.895Z,66.67
2019-03-10T04:32:20.531Z,66.97
2019-03-10T04:33:24.201Z,67.15
2019-03-10T04:34:27.754Z,67.20
2019-03-10T04:35:31.488Z,66.89
2019-03-10T04:36:35.120Z,66.59
2019-03-10T04:37:38.763Z,66.27
2019-03-10T04:38:42.425Z,66.19
2019-03-10T04:39:45.999Z,65.18
2019-03-10T04:40:49.685Z,65.40
2019-03-10T04:41:53.322Z,66.48
2019-03-10T04:42:56.881Z,67.37
2019-03-10T04:44:00.544Z,67.69
2019-03-10T04:45:05.481Z,67.85
2019-03-10T04:46:09.263Z,72.04
2019-03-10T04:47:12.902Z,71.93
2019-03-10T04:48:16.536Z,72.40
2019-03-10T04:49:20.251Z,71.97
2019-03-10T04:50:23.821Z,70.03
2019-03-10T04:51:27.448Z,68.91
2019-03-10T04:52:32.052Z,68.48
2019-03-10T04:53:35.684Z,67.74
2019-03-10T04:54:59.037Z,68.08
2019-03-10T04:56:07.320Z,69.26
2019-03-10T04:57:12.605Z,70.94
2019-03-10T04:58:20.559Z,71.48
2019-03-10T04:59:24.186Z,70.62
2019-03-10T05:00:28.515Z,70.12
2019-03-10T05:01:32.224Z,69.95
2019-03-10T05:02:35.865Z,70.54
2019-03-10T05:03:39.493Z,71.30
2019-03-10T05:04:43.121Z,70.29
2019-03-10T05:05:46.763Z,70.01
2019-03-10T05:06:50.399Z,69.52
2019-03-10T05:07:53.968Z,69.42
2019-03-10T05:08:57.982Z,69.95
2019-03-10T05:10:01.621Z,70.03
2019-03-10T05:11:05.674Z,70.05
2019-03-10T05:12:09.245Z,70.00
2019-03-10T05:13:12.883Z,70.10
2019-03-10T05:14:16.528Z,69.90
2019-03-10T05:15:20.164Z,69.85
2019-03-10T05:16:23.831Z,70.06
2019-03-10T05:17:27.470Z,70.43
2019-03-10T05:18:31.108Z,70.44
2019-03-10T05:19:34.749Z,70.34
2019-03-10T05:20:38.388Z,70.14
2019-03-10T05:21:42.070Z,69.87
2019-03-10T05:22:45.721Z,70.14
2019-03-10T05:23:49.367Z,70.01
2019-03-10T05:24:53.008Z,69.79
2019-03-10T05:25:56.951Z,69.98
2019-03-10T05:27:00.744Z,69.84
2019-03-10T05:28:04.380Z,69.56
2019-03-10T05:29:08.261Z,69.59
2019-03-10T05:30:12.100Z,69.12
2019-03-10T05:31:15.825Z,69.13
2019-03-10T05:32:19.507Z,68.83
2019-03-10T05:33:23.540Z,69.29
2019-03-10T05:34:27.115Z,69.77
2019-03-10T05:35:30.750Z,69.84
2019-03-10T05:36:34.394Z,69.57
2019-03-10T05:37:38.060Z,69.69
2019-03-10T05:38:41.708Z,69.42
2019-03-10T05:39:45.347Z,69.14
2019-03-10T05:40:49.042Z,69.52
2019-03-10T05:41:52.606Z,69.14
2019-03-10T05:42:56.295Z,69.42
2019-03-10T05:43:59.979Z,69.37
2019-03-10T05:45:04.597Z,68.49
2019-03-10T05:46:08.240Z,67.91
2019-03-10T05:47:11.883Z,67.81
2019-03-10T05:48:15.496Z,67.81
2019-03-10T05:49:19.453Z,68.52
2019-03-10T05:50:23.200Z,68.20
2019-03-10T05:51:26.795Z,67.70
2019-03-10T05:52:30.496Z,67.85
2019-03-10T05:53:34.173Z,67.87
2019-03-10T05:54:37.822Z,67.57
2019-03-10T05:55:45.432Z,67.88
2019-03-10T05:56:49.077Z,67.87
2019-03-10T05:57:52.708Z,68.18
2019-03-10T05:58:56.349Z,68.29
2019-03-10T06:00:00.026Z,68.04
2019-03-10T06:01:05.353Z,67.78
2019-03-10T06:02:09.006Z,67.58
2019-03-10T06:03:13.815Z,67.14
2019-03-10T06:04:18.951Z,67.14
2019-03-10T06:05:24.130Z,67.26
2019-03-10T06:06:27.761Z,67.67
2019-03-10T06:07:31.331Z,67.02
2019-03-10T06:08:34.893Z,67.15
2019-03-10T06:09:38.646Z,67.26
2019-03-10T06:10:42.313Z,67.25
2019-03-10T06:11:45.948Z,67.27
2019-03-10T06:12:49.605Z,67.05
2019-03-10T06:13:53.394Z,66.93
2019-03-10T06:14:57.064Z,67.07
2019-03-10T06:16:00.769Z,66.75
2019-03-10T06:17:04.404Z,66.95
2019-03-10T06:18:13.831Z,67.12
2019-03-10T06:19:17.684Z,67.15
2019-03-10T06:20:21.399Z,66.76
2019-03-10T06:21:25.708Z,66.40
2019-03-10T06:22:29.338Z,66.29
2019-03-10T06:23:32.979Z,66.24
2019-03-10T06:24:36.605Z,66.30
2019-03-10T06:25:40.281Z,66.17
2019-03-10T06:26:43.908Z,65.98
2019-03-10T06:27:47.546Z,65.68
2019-03-10T06:28:51.157Z,65.70
2019-03-10T06:29:54.747Z,65.55
2019-03-10T06:30:58.423Z,65.27
2019-03-10T06:32:02.085Z,65.14
2019-03-10T06:33:05.725Z,64.58
2019-03-10T06:34:09.304Z,63.87
2019-03-10T06:35:12.942Z,63.87
2019-03-10T06:36:16.592Z,64.00
2019-03-10T06:37:20.230Z,63.45
2019-03-10T06:38:23.919Z,64.22
2019-03-10T06:39:27.558Z,62.70
2019-03-10T06:40:32.423Z,62.48
2019-03-10T06:41:36.426Z,62.34
2019-03-10T06:42:39.976Z,61.60
2019-03-10T06:43:43.861Z,60.96
2019-03-10T06:44:47.647Z,61.10
2019-03-10T06:45:51.287Z,61.00
2019-03-10T06:46:54.997Z,60.98
2019-03-10T06:47:58.678Z,60.73
2019-03-10T06:49:03.889Z,60.58
2019-03-10T06:50:12.233Z,59.82
2019-03-10T06:51:15.822Z,59.51
2019-03-10T06:52:19.445Z,59.56
2019-03-10T06:53:23.081Z,59.70
2019-03-10T06:54:26.731Z,59.57
2019-03-10T06:55:30.375Z,59.24
2019-03-10T06:56:34.005Z,59.25
2019-03-10T06:57:37.656Z,59.21
2019-03-10T06:58:41.297Z,59.09
2019-03-10T06:59:45.039Z,59.40
2019-03-10T07:00:48.671Z,58.90
2019-03-10T07:01:52.304Z,58.43
2019-03-10T07:02:55.869Z,58.31
2019-03-10T07:03:59.432Z,58.58
2019-03-10T07:05:03.105Z,58.52
2019-03-10T07:06:11.052Z,58.56
2019-03-10T07:07:14.304Z,59.23
2019-03-10T07:08:17.872Z,59.64
2019-03-10T07:09:21.553Z,59.03
2019-03-10T07:10:28.436Z,59.07
2019-03-10T07:11:34.158Z,59.17
2019-03-10T07:12:37.907Z,58.96
2019-03-10T07:13:41.578Z,58.58
2019-03-10T07:14:45.214Z,58.03
2019-03-10T07:15:48.955Z,58.35
2019-03-10T07:16:52.684Z,58.09
2019-03-10T07:17:56.383Z,57.59
2019-03-10T07:19:00.349Z,57.70
2019-03-10T07:20:05.474Z,57.54
2019-03-10T07:21:09.100Z,57.46
2019-03-10T07:22:12.726Z,57.41
2019-03-10T07:23:17.755Z,56.73
2019-03-10T07:24:21.369Z,56.56
2019-03-10T07:25:26.643Z,56.56
2019-03-10T07:26:33.058Z,56.72
2019-03-10T07:27:38.377Z,57.13
2019-03-10T07:28:49.453Z,57.00
2019-03-10T07:30:00.961Z,56.90
2019-03-10T07:31:06.293Z,56.54
2019-03-10T07:32:14.565Z,56.64
2019-03-10T07:33:22.688Z,56.06
2019-03-10T07:34:28.369Z,56.19
2019-03-10T07:35:33.655Z,55.72
2019-03-10T07:36:38.932Z,55.46
2019-03-10T07:37:50.239Z,55.46
2019-03-10T07:38:58.514Z,54.50
2019-03-10T07:40:05.427Z,54.50
2019-03-10T07:41:26.030Z,54.08
2019-03-10T07:42:37.405Z,54.57
2019-03-10T07:43:45.433Z,54.57
2019-03-10T07:45:08.934Z,54.31
2019-03-10T07:46:28.935Z,52.92
2019-03-10T07:47:34.222Z,53.47
2019-03-10T07:48:48.656Z,52.34
2019-03-10T07:50:05.808Z,50.46
2019-03-10T07:51:11.024Z,51.01
2019-03-10T07:52:20.142Z,51.03
2019-03-10T07:53:26.463Z,51.03
2019-03-10T07:54:37.637Z,48.57
2019-03-10T07:55:47.735Z,48.57
2019-03-10T07:57:09.236Z,47.96
2019-03-10T07:58:23.650Z,46.75
2019-03-10T07:59:44.856Z,46.85
2019-03-10T08:00:59.321Z,45.34
2019-03-10T08:02:20.600Z,45.56
2019-03-10T08:03:41.017Z,44.02
2019-03-10T08:04:46.347Z,43.61
2019-03-10T08:05:51.622Z,43.49
2019-03-10T08:06:59.639Z,41.34
2019-03-10T08:08:07.918Z,41.34
2019-03-10T08:09:13.212Z,41.67
2019-03-10T08:10:21.174Z,40.92
2019-03-10T08:11:29.187Z,40.92
2019-03-10T08:12:37.293Z,41.06
2019-03-10T08:13:48.558Z,41.53
2019-03-10T08:15:10.113Z,40.88
2019-03-10T08:16:18.129Z,40.84
2019-03-10T08:17:24.588Z,40.91
2019-03-10T08:18:45.336Z,40.26
2019-03-10T08:20:08.693Z,39.71
2019-03-10T08:21:20.093Z,40.05
2019-03-10T08:22:37.866Z,39.88
2019-03-10T08:23:59.236Z,40.14
2019-03-10T08:25:07.012Z,40.27
2019-03-10T08:26:21.213Z,39.78
2019-03-10T08:27:38.773Z,39.20
2019-03-10T08:28:58.948Z,38.54
2019-03-10T08:30:04.228Z,38.61
2019-03-10T08:31:13.867Z,39.35
2019-03-10T08:32:26.289Z,38.91
2019-03-10T08:33:49.826Z,40.18
2019-03-10T08:34:55.135Z,37.99
2019-03-10T08:36:00.408Z,39.58
2019-03-10T08:37:11.819Z,39.58
2019-03-10T08:38:33.403Z,39.48
2019-03-10T08:39:44.515Z,38.43
2019-03-10T08:40:52.585Z,38.63
2019-03-10T08:42:03.606Z,36.40
2019-03-10T08:43:08.822Z,35.70
2019-03-10T08:44:22.951Z,38.12
2019-03-10T08:45:37.415Z,36.16
2019-03-10T08:47:01.126Z,36.01
2019-03-10T08:48:15.424Z,37.26
2019-03-10T08:49:29.627Z,35.64
2019-03-10T08:50:34.835Z,36.47
2019-03-10T08:51:46.047Z,35.29
2019-03-10T08:52:53.768Z,34.60
2019-03-10T08:54:04.855Z,34.15
2019-03-10T08:55:19.393Z,33.97
2019-03-10T08:56:24.562Z,33.08
2019-03-10T08:57:29.835Z,31.87
2019-03-10T08:58:35.047Z,30.86
2019-03-10T08:59:46.388Z,30.42
2019-03-10T09:01:10.119Z,31.37
2019-03-10T09:02:18.096Z,29.47
2019-03-10T09:03:29.344Z,30.51
2019-03-10T09:04:34.684Z,30.90
2019-03-10T09:05:52.178Z,29.59
2019-03-10T09:07:09.501Z,29.78
2019-03-10T09:08:20.555Z,28.54
2019-03-10T09:09:41.006Z,28.31
2019-03-10T09:10:46.222Z,26.41
2019-03-10T09:11:51.505Z,26.99
2019-03-10T09:13:12.024Z,26.24
2019-03-10T09:14:26.550Z,27.29
2019-03-10T09:15:41.286Z,27.52
2019-03-10T09:16:49.382Z,26.01
2019-03-10T09:18:00.656Z,25.65
2019-03-10T09:19:24.074Z,24.65
2019-03-10T09:20:29.365Z,25.47
2019-03-10T09:21:40.444Z,25.44
2019-03-10T09:22:45.716Z,25.89
2019-03-10T09:23:50.990Z,25.25
2019-03-10T09:25:08.234Z,25.16
2019-03-10T09:26:13.534Z,24.78
2019-03-10T09:27:35.223Z,25.56
2019-03-10T09:28:49.692Z,24.72
2019-03-10T09:30:11.286Z,24.91
2019-03-10T09:31:18.961Z,25.09
2019-03-10T09:32:37.001Z,24.77
2019-03-10T09:33:45.504Z,23.01
2019-03-10T09:34:50.855Z,23.58
2019-03-10T09:36:05.103Z,23.43
2019-03-10T09:37:10.381Z,24.20
2019-03-10T09:38:31.851Z,23.40
2019-03-10T09:39:40.172Z,23.19
2019-03-10T09:40:45.453Z,22.96
2019-03-10T09:42:08.523Z,23.51
2019-03-10T09:43:13.803Z,22.84
2019-03-10T09:44:19.086Z,22.10
2019-03-10T09:45:27.205Z,22.35
2019-03-10T09:46:32.498Z,22.16
2019-03-10T09:47:40.502Z,21.76
2019-03-10T09:48:45.780Z,21.67
2019-03-10T09:49:51.060Z,22.19
2019-03-10T09:51:05.197Z,21.70
2019-03-10T09:52:16.794Z,21.00
2019-03-10T09:53:24.684Z,21.60
2019-03-10T09:54:29.949Z,20.92
2019-03-10T09:55:41.514Z,20.84
2019-03-10T09:56:58.806Z,20.61
2019-03-10T09:58:06.932Z,19.81
2019-03-10T09:59:24.151Z,19.00
2019-03-10T10:00:32.511Z,19.18
2019-03-10T10:01:54.214Z,19.64
2019-03-10T10:03:05.247Z,18.82
2019-03-10T10:04:13.550Z,18.46
2019-03-10T10:05:34.182Z,18.38
2019-03-10T10:06:39.522Z,17.89
2019-03-10T10:07:44.874Z,17.12
2019-03-10T10:08:50.312Z,17.35
2019-03-10T10:10:08.704Z,17.65
2019-03-10T10:11:13.994Z,17.29
2019-03-10T10:12:27.813Z,17.80
2019-03-10T10:13:33.089Z,17.98
2019-03-10T10:14:44.372Z,18.00
2019-03-10T10:15:55.746Z,18.17
2019-03-10T10:17:01.026Z,18.37
2019-03-10T10:18:09.292Z,17.99
2019-03-10T10:19:14.578Z,20.11
2019-03-10T10:20:19.868Z,17.79
2019-03-10T10:21:34.011Z,18.33
2019-03-10T10:22:45.301Z,17.04
2019-03-10T10:23:53.419Z,16.45
2019-03-10T10:24:58.690Z,17.01
2019-03-10T10:26:11.107Z,16.12
2019-03-10T10:27:20.288Z,16.87
2019-03-10T10:28:25.559Z,17.54
2019-03-10T10:29:36.810Z,16.83
2019-03-10T10:30:51.275Z,16.71
2019-03-10T10:32:11.713Z,17.42
2019-03-10T10:33:22.778Z,17.03
2019-03-10T10:34:33.648Z,16.98
2019-03-10T10:35:38.924Z,17.35
2019-03-10T10:36:59.308Z,18.09
2019-03-10T10:38:04.648Z,17.21
2019-03-10T10:39:25.440Z,17.71
2019-03-10T10:40:30.721Z,18.31
2019-03-10T10:41:41.977Z,17.18
2019-03-10T10:43:02.379Z,16.99
2019-03-10T10:44:13.539Z,16.41
2019-03-10T10:45:18.790Z,16.84
2019-03-10T10:46:39.423Z,16.51
2019-03-10T10:47:57.148Z,17.19
2019-03-10T10:49:02.415Z,16.41
2019-03-10T10:50:10.622Z,15.98
2019-03-10T10:51:24.949Z,16.58
2019-03-10T10:52:32.970Z,15.64
2019-03-10T10:53:44.206Z,15.84
2019-03-10T10:54:58.379Z,15.55
2019-03-10T10:56:03.568Z,15.26
2019-03-10T10:57:20.792Z,16.01
2019-03-10T10:58:42.313Z,15.24
2019-03-10T10:59:50.556Z,14.86
2019-03-10T11:00:55.868Z,14.77
2019-03-10T11:02:01.180Z,14.24
2019-03-10T11:03:15.683Z,14.29
2019-03-10T11:04:23.883Z,13.94
2019-03-10T11:05:32.132Z,14.08
2019-03-10T11:06:54.061Z,13.93
2019-03-10T11:08:11.494Z,13.63
2019-03-10T11:09:23.497Z,13.64
2019-03-10T11:10:44.928Z,13.96
2019-03-10T11:11:50.358Z,13.40
2019-03-10T11:12:55.698Z,13.94
2019-03-10T11:14:03.957Z,13.83
2019-03-10T11:15:10.735Z,13.52
2019-03-10T11:16:19.219Z,13.46
2019-03-10T11:17:40.659Z,13.59
2019-03-10T11:18:54.726Z,13.31
2019-03-10T11:19:59.979Z,12.71
2019-03-10T11:21:05.658Z,12.85
2019-03-10T11:22:16.718Z,12.97
2019-03-10T11:23:36.999Z,12.51
2019-03-10T11:24:43.395Z,12.52
2019-03-10T11:26:03.718Z,12.14
2019-03-10T11:27:09.011Z,12.92
2019-03-10T11:28:17.222Z,11.89
2019-03-10T11:29:22.423Z,12.09
2019-03-10T11:30:27.696Z,11.62
2019-03-10T11:31:35.595Z,12.51
2019-03-10T11:32:52.895Z,12.19
2019-03-10T11:34:01.712Z,11.94
2019-03-10T11:35:09.183Z,13.19
2019-03-10T11:36:26.429Z,12.13
2019-03-10T11:37:31.726Z,11.26
2019-03-10T11:38:37.310Z,12.17
2019-03-10T11:39:43.114Z,12.12
2019-03-10T11:40:51.398Z,11.62
2019-03-10T11:42:02.187Z,11.58
2019-03-10T11:43:10.220Z,12.40
2019-03-10T11:44:15.498Z,12.37
2019-03-10T11:45:35.787Z,13.07
2019-03-10T11:46:52.951Z,13.36
2019-03-10T11:48:07.084Z,12.91
2019-03-10T11:49:12.396Z,13.65
2019-03-10T11:50:33.157Z,12.97
2019-03-10T11:51:55.124Z,12.55
2019-03-10T11:53:19.097Z,12.36
2019-03-10T11:54:25.422Z,12.58
2019-03-10T11:55:33.513Z,12.58
2019-03-10T11:56:57.203Z,12.40
2019-03-10T11:58:02.453Z,12.93
2019-03-10T11:59:24.104Z,12.88
2019-03-10T12:00:29.421Z,12.56
2019-03-10T12:01:47.018Z,12.36
2019-03-10T12:02:52.304Z,12.29
2019-03-10T12:03:59.016Z,12.18
2019-03-10T12:05:06.953Z,12.50
2019-03-10T12:06:12.266Z,12.65
2019-03-10T12:07:17.564Z,12.04
2019-03-10T12:08:22.909Z,12.55
2019-03-10T12:09:26.628Z,12.14
2019-03-10T12:10:30.389Z,12.29
2019-03-10T12:11:34.095Z,12.35
2019-03-10T12:12:37.749Z,12.03
2019-03-10T12:13:41.368Z,11.28
2019-03-10T12:14:46.807Z,11.29
2019-03-10T12:15:50.495Z,11.39
2019-03-10T12:16:54.530Z,12.27
2019-03-10T12:17:58.169Z,12.53
2019-03-10T12:19:01.792Z,11.67
2019-03-10T12:20:13.219Z,12.42
2019-03-10T12:21:16.843Z,12.29
2019-03-10T12:22:20.494Z,12.31
2019-03-10T12:23:27.011Z,12.22
2019-03-10T12:24:30.650Z,12.47
2019-03-10T12:25:34.280Z,12.24
2019-03-10T12:26:37.891Z,12.01
2019-03-10T12:27:41.577Z,11.28
2019-03-10T12:28:45.189Z,11.45
2019-03-10T12:29:48.825Z,11.13
2019-03-10T12:30:52.551Z,11.34
2019-03-10T12:31:56.186Z,11.71
2019-03-10T12:32:59.870Z,10.66
2019-03-10T12:34:06.161Z,10.71
2019-03-10T12:35:11.428Z,10.92
2019-03-10T12:36:15.058Z,11.39
2019-03-10T12:37:20.159Z,11.70
2019-03-10T12:38:23.832Z,11.18
2019-03-10T12:39:27.469Z,12.04
2019-03-10T12:40:31.100Z,11.65
2019-03-10T12:41:34.745Z,11.29
2019-03-10T12:42:38.388Z,11.39
2019-03-10T12:43:42.035Z,11.67
2019-03-10T12:44:45.662Z,11.67
2019-03-10T12:45:49.706Z,12.02
2019-03-10T12:46:54.810Z,12.36
2019-03-10T12:47:58.873Z,11.99
2019-03-10T12:49:02.547Z,11.95
2019-03-10T12:50:14.126Z,12.02
2019-03-10T12:51:17.763Z,11.81
2019-03-10T12:52:21.420Z,11.85
2019-03-10T12:53:25.034Z,12.39
2019-03-10T12:54:28.705Z,12.45
2019-03-10T12:55:32.268Z,11.00
2019-03-10T12:56:35.917Z,11.69
2019-03-10T12:57:39.601Z,11.73
2019-03-10T12:58:43.220Z,11.95
2019-03-10T12:59:46.900Z,11.44
2019-03-10T13:00:50.537Z,11.82
2019-03-10T13:01:54.311Z,12.72
2019-03-10T13:02:59.487Z,11.84
2019-03-10T13:04:03.092Z,11.96
2019-03-10T13:05:08.879Z,12.13
2019-03-10T13:06:12.538Z,12.35
2019-03-10T13:07:16.183Z,12.55
2019-03-10T13:08:19.812Z,13.51
2019-03-10T13:09:23.476Z,12.61
2019-03-10T13:10:28.337Z,11.81
2019-03-10T13:11:33.404Z,12.73
2019-03-10T13:12:37.119Z,12.79
2019-03-10T13:13:41.100Z,12.47
2019-03-10T13:14:44.645Z,12.51
2019-03-10T13:15:48.316Z,13.05
2019-03-10T13:16:51.948Z,13.14
2019-03-10T13:17:55.593Z,13.04
2019-03-10T13:18:59.239Z,12.58
2019-03-10T13:20:02.861Z,11.92
2019-03-10T13:21:06.527Z,12.25
2019-03-10T13:22:10.174Z,11.75
2019-03-10T13:23:13.986Z,11.64
2019-03-10T13:24:17.624Z,12.13
2019-03-10T13:25:21.280Z,11.94
2019-03-10T13:26:24.919Z,12.56
2019-03-10T13:27:28.544Z,12.57
2019-03-10T13:28:32.175Z,13.31
2019-03-10T13:29:35.914Z,13.53
2019-03-10T13:30:40.460Z,12.71
2019-03-10T13:31:45.549Z,12.60
2019-03-10T13:32:49.194Z,11.79
2019-03-10T13:33:52.745Z,12.16
2019-03-10T13:34:58.023Z,12.13
2019-03-10T13:36:01.647Z,11.93
2019-03-10T13:37:05.379Z,11.26
2019-03-10T13:38:10.672Z,11.10
2019-03-10T13:39:14.439Z,11.07
2019-03-10T13:40:18.059Z,11.39
2019-03-10T13:41:21.695Z,11.56
2019-03-10T13:42:25.355Z,11.35
2019-03-10T13:43:28.987Z,12.02
2019-03-10T13:44:32.686Z,11.21
2019-03-10T13:45:36.414Z,11.29
2019-03-10T13:46:40.057Z,11.43
2019-03-10T13:47:46.708Z,11.21
2019-03-10T13:48:50.311Z,10.90
2019-03-10T13:49:55.055Z,11.39
2019-03-10T13:50:58.850Z,10.65
2019-03-10T13:52:02.860Z,10.79
2019-03-10T13:53:09.540Z,10.62
2019-03-10T13:54:13.183Z,10.59
2019-03-10T13:55:16.818Z,11.02
2019-03-10T13:56:20.450Z,12.07
2019-03-10T13:57:24.434Z,11.36
2019-03-10T13:58:28.090Z,12.02
2019-03-10T13:59:31.711Z,12.06
2019-03-10T14:00:35.340Z,12.00
2019-03-10T14:01:38.969Z,12.17
2019-03-10T14:02:42.615Z,11.55
2019-03-10T14:03:46.286Z,11.42
2019-03-10T14:04:49.919Z,11.82
2019-03-10T14:05:53.570Z,13.18
2019-03-10T14:06:57.196Z,13.35
2019-03-10T14:08:00.829Z,12.58
2019-03-10T14:09:06.857Z,13.04
2019-03-10T14:10:12.266Z,12.92
2019-03-10T14:11:15.905Z,12.71
2019-03-10T14:12:19.619Z,13.44
2019-03-10T14:13:23.254Z,13.57
2019-03-10T14:14:31.016Z,12.55
2019-03-10T14:15:36.205Z,13.22
2019-03-10T14:16:39.842Z,12.98
2019-03-10T14:17:43.470Z,13.79